Share

Alfred, TX

10:50 PM CDT on April 23, 2014 (GMT -0500)
KTXROBST6 Elev 220 ft | 27.68 °N, 98.08 °W | Change Station

Current weather conditions updated 6 seconds ago

Clear
Clear
71.2 °F
Feels Like 71.2 °F
N
9.0
Wind Variable Wind from SE
Gusts 20.0 mph
Sunrise 6:59 AM
Sunset 8:01 PM
Moon Waning Crescent

Tomorrow is forecast to be Warmer than today.

Pressure 29.81 in
Visibility 10.0 miles
Clouds Clear
Dew Point 67 °F
Humidity 86%
Rainfall 0.00 in
Snow Depth Not available.
UV 0 out of 16
Pollen 7.40 out of 12
Air Quality Not available.
Flu Activity Local Activity
METAR KALI 240253Z AUTO 14013KT 10SM CLR 22/19 A2982 RMK AO2 SLP095 T02220189 53021

More Conditions Fewer Conditions

Pressure 29.81 in
Visibility 10.0 miles
Clouds Clear
Dew Point 67 °F
Humidity 86%
Rainfall 0.00 in
Snow Depth Not available.
UV 0 out of 16
Pollen 7.40 out of 12
Air Quality Not available.
Flu Activity Local Activity
METAR KALI 240253Z AUTO 14013KT 10SM CLR 22/19 A2982 RMK AO2 SLP095 T02220189 53021

More Conditions Fewer Conditions

10-Day Weather Forecast

Almanac

Astronomy

Apr. 23, 2014 Rise Set
Actual Time 6:59 AM CDT 8:01 PM CDT
Civil Twilight 6:35 AM CDT 8:26 PM CDT
Nautical Twilight 6:06 AM CDT 8:55 PM CDT
Astronomical Twilight 5:37 AM CDT 9:24 PM CDT
Moon 3:00 AM CDT (4/23) 2:41 PM CDT (4/23)
Length of Visible Light 13h 50m
Length of Day
13h 02m
Tomorrow will be 1m 29s longer.
Waning Crescent, 30% of the Moon is Illuminated
Today
Waning Crescent
Apr 29
New
May 6
First Quarter
May 14
Full
May 21
Last Quarter

Today's Extremes

State Highs State Lows

Community

  • Balance
    Balance
  • Nestled In
    Nestled In
  • Stunning Sunrise
    Stunning Sunrise
  • spring flowers
    spring flowers
  • Earth Day Spectrum Ove' Blue
    Earth Day Spectrum Ove' Blue

WunderPhotos

Upload Photos

1,704,542 photos uploaded!

Nearby

Snow Depth

Station Depth Elevation
No new snow has been reported.

Coastal Water Temperatures

Place Temperature
No Stations Reporting

Earthquake Activity

City Distance Mag. Time & Date
No recent earthquake activity has been reported nearby.
Minimum magnitude displayed is 2.5.

Nearby Weather Stations

Station Location Temp. Heat Index Dew Point Humidity Wind Precip. Elev Updated Type
Alice, TX 71.2 °F - 67 °F 86% SE  at  9.0 mph 0.00 in / hr 220 ft 10:50 PM CDT Rapid Fire
MesoWest DRISCL , Robstown, TX 74 °F 72 °F - - North  at  - 0.00 in / hr 78 ft 7:50 PM CDT MADIS
MesoWest RICARD , Kingsville, TX 71 °F - - - North  at  - 0.00 in / hr 68 ft 8:40 PM CDT MADIS

Show More Stations Show Fewer Stations

What do you think?

We're not finished. Please let us know what you like, what you don't like, and what you are still missing.